Time;durP1;ratioP1;P1;durP2;ratioP2;P2;SDS_P1;SDS_P2;PMS_P1;PMS_P2;Temp;Humidity;BMP_temperature;BMP_pressure;BME280_temperature;BME280_humidity;BME280_pressure;Samples;Min_cycle;Max_cycle;Signal;HPM_P1;HPM_P2
2022/08/16 00:02:18;;;;;;;12.95;11.65;;;;;;;20.86;76.49;100584.44;5057422;28;20071;-76
2022/08/16 00:04:44;;;;;;;12.30;11.20;;;;;;;20.85;76.69;100590.75;5014923;28;20096;-76
2022/08/16 00:07:10;;;;;;;12.43;11.35;;;;;;;20.84;76.77;100581.91;5058090;28;20029;-76
2022/08/16 00:09:35;;;;;;;12.30;11.23;;;;;;;20.84;76.74;100592.53;5051188;28;20068;-76
2022/08/16 00:12:01;;;;;;;12.98;11.25;;;;;;;20.84;76.67;100605.03;5037392;28;20046;-76
2022/08/16 00:14:29;;;;;;;16.75;12.32;;;;;;;20.82;76.94;100599.81;5035808;28;20037;-76
2022/08/16 00:16:55;;;;;;;12.80;11.50;;;;;;;20.81;76.77;100606.16;5037689;28;20033;-76
2022/08/16 00:19:31;;;;;;;13.23;12.07;;;;;;;20.80;76.92;100601.78;5039900;28;20092;-76
2022/08/16 00:21:57;;;;;;;14.38;11.68;;;;;;;20.79;76.68;100593.94;5057578;28;20047;-76
2022/08/16 00:24:25;;;;;;;13.40;12.05;;;;;;;20.79;76.70;100601.91;5035972;28;20084;-76
2022/08/16 00:26:51;;;;;;;13.30;11.98;;;;;;;20.77;76.98;100591.41;5037500;28;20106;-76
2022/08/16 00:29:16;;;;;;;13.57;11.82;;;;;;;20.77;76.91;100602.03;5020781;28;20272;-76
2022/08/16 00:31:49;;;;;;;12.77;11.68;;;;;;;20.76;76.82;100602.22;5057111;28;20044;-76
2022/08/16 00:34:15;;;;;;;12.85;11.65;;;;;;;20.75;76.95;100601.34;5038245;28;20252;-76
2022/08/16 00:36:41;;;;;;;15.23;12.20;;;;;;;20.75;76.98;100605.84;5037339;28;20059;-76
2022/08/16 00:39:07;;;;;;;13.00;11.73;;;;;;;20.73;77.29;100607.78;5041360;28;20039;-76
2022/08/16 00:41:33;;;;;;;12.23;10.90;;;;;;;20.72;76.90;100606.94;5053017;28;20041;-76
2022/08/16 00:44:01;;;;;;;12.57;10.32;;;;;;;20.71;76.70;100608.75;5037565;28;20052;-76
2022/08/16 00:46:33;;;;;;;11.52;10.40;;;;;;;20.71;76.65;100611.41;5054324;28;20075;-76
2022/08/16 00:48:59;;;;;;;11.18;9.60;;;;;;;20.71;76.41;100610.56;5057600;28;20041;-76
2022/08/16 00:51:26;;;;;;;11.77;10.57;;;;;;;20.70;76.46;100609.75;5039672;28;20044;-76
2022/08/16 00:53:53;;;;;;;10.75;9.75;;;;;;;20.70;76.67;100604.41;5037441;28;20029;-76
2022/08/16 00:56:23;;;;;;;11.15;10.05;;;;;;;20.69;76.75;100602.72;5019499;28;20025;-76
2022/08/16 00:58:49;;;;;;;10.88;9.88;;;;;;;20.69;76.60;100610.72;5032314;28;20040;-76
2022/08/16 01:04:56;;;;;;;10.43;9.35;;;;;;;20.68;76.75;100613.50;5037719;28;20025;-76
2022/08/16 01:07:22;;;;;;;10.32;9.20;;;;;;;20.66;76.97;100599.47;5040533;28;20292;-76
2022/08/16 01:09:47;;;;;;;10.90;9.73;;;;;;;20.65;76.79;100597.81;5056020;28;20044;-76
2022/08/16 01:12:13;;;;;;;14.02;10.10;;;;;;;20.64;76.70;100602.28;5038581;28;20039;-76
2022/08/16 01:14:44;;;;;;;11.35;10.35;;;;;;;20.63;76.87;100599.75;5030420;28;20244;-76
2022/08/16 01:17:13;;;;;;;11.40;10.43;;;;;;;20.61;76.69;100599.03;5054316;28;20043;-76
2022/08/16 01:19:43;;;;;;;11.27;10.18;;;;;;;20.61;76.96;100597.25;5036759;28;20348;-76
2022/08/16 01:22:22;;;;;;;11.65;10.55;;;;;;;20.60;76.58;100592.03;5055823;28;20029;-76
2022/08/16 01:24:54;;;;;;;12.18;10.90;;;;;;;20.59;76.92;100590.31;5039431;28;20224;-76
2022/08/16 01:27:28;;;;;;;12.07;10.77;;;;;;;20.59;76.94;100595.63;5024554;28;20033;-76
2022/08/16 01:29:59;;;;;;;11.98;10.73;;;;;;;20.57;76.74;100589.63;5041008;28;20047;-76
2022/08/16 01:32:27;;;;;;;12.15;11.15;;;;;;;20.58;77.00;100586.00;5059472;28;20041;-76
2022/08/16 01:34:52;;;;;;;12.18;10.77;;;;;;;20.57;76.82;100590.44;5061457;28;20094;-76
2022/08/16 01:37:18;;;;;;;11.68;10.60;;;;;;;20.57;76.89;100586.97;5007684;28;20045;-76
2022/08/16 01:39:43;;;;;;;12.18;11.07;;;;;;;20.55;76.88;100591.56;5039649;28;20033;-76
2022/08/16 01:42:10;;;;;;;11.70;10.73;;;;;;;20.55;76.88;100592.41;5056315;28;20028;-76
2022/08/16 01:44:37;;;;;;;12.90;11.40;;;;;;;20.53;76.85;100595.19;5059003;28;20032;-76
2022/08/16 01:47:03;;;;;;;12.82;11.73;;;;;;;20.52;77.08;100590.03;5041308;28;20232;-76
2022/08/16 01:49:38;;;;;;;13.70;11.27;;;;;;;20.51;76.88;100586.50;5026040;28;20348;-76
2022/08/16 01:52:10;;;;;;;12.85;11.65;;;;;;;20.52;76.94;100595.34;5046967;28;20056;-76
2022/08/16 01:54:35;;;;;;;12.88;11.57;;;;;;;20.51;76.98;100591.00;5022834;28;20048;-76
2022/08/16 01:57:02;;;;;;;12.32;11.13;;;;;;;20.49;76.90;100588.47;5034006;28;20329;-76
2022/08/16 01:59:29;;;;;;;12.18;11.07;;;;;;;20.49;76.66;100593.78;5060075;28;20040;-76
2022/08/16 02:01:56;;;;;;;12.35;11.20;;;;;;;20.48;76.71;100592.13;5059048;28;20037;-76
2022/08/16 02:04:24;;;;;;;13.40;12.00;;;;;;;20.49;76.53;100599.09;5044202;28;20025;-76
2022/08/16 02:06:50;;;;;;;12.68;11.57;;;;;;;20.48;76.56;100592.13;5031587;28;20363;-76
2022/08/16 02:09:18;;;;;;;13.93;12.63;;;;;;;20.48;76.61;100591.25;5060083;28;20021;-76
2022/08/16 02:11:48;;;;;;;14.43;11.93;;;;;;;20.47;76.73;100590.41;5041947;28;20033;-76
2022/08/16 02:14:13;;;;;;;14.27;12.02;;;;;;;20.47;76.72;100593.06;5059649;28;20032;-76
2022/08/16 02:16:41;;;;;;;14.45;12.70;;;;;;;20.47;76.79;100590.41;5053448;28;20313;-76
2022/08/16 02:19:07;;;;;;;14.23;12.73;;;;;;;20.46;76.90;100595.88;5040222;28;20033;-76
2022/08/16 02:21:33;;;;;;;13.18;11.85;;;;;;;20.46;76.95;100585.22;5043496;28;20078;-76
2022/08/16 02:23:58;;;;;;;14.23;12.82;;;;;;;20.45;76.78;100587.03;5059954;28;20048;-76
2022/08/16 02:26:25;;;;;;;14.10;12.82;;;;;;;20.44;76.85;100587.19;5056829;28;20037;-76
2022/08/16 02:28:51;;;;;;;14.43;12.68;;;;;;;20.44;76.53;100587.19;5040289;28;20037;-76
2022/08/16 02:31:17;;;;;;;14.70;12.95;;;;;;;20.43;76.94;100582.81;5024433;28;20017;-76
2022/08/16 02:33:43;;;;;;;14.65;13.15;;;;;;;20.41;77.02;100590.09;5042184;28;20098;-75
2022/08/16 02:36:10;;;;;;;15.13;13.55;;;;;;;20.40;77.03;100591.09;5040404;28;20037;-76
2022/08/16 02:38:38;;;;;;;14.00;12.70;;;;;;;20.39;77.14;100590.25;5058048;28;20097;-76
2022/08/16 02:41:04;;;;;;;15.65;13.30;;;;;;;20.39;76.97;100589.38;5025864;28;20053;-78
2022/08/16 02:43:33;;;;;;;15.40;13.80;;;;;;;20.38;77.06;100590.38;5041694;28;20283;-77
2022/08/16 02:45:59;;;;;;;14.50;13.02;;;;;;;20.37;76.99;100592.16;5045319;28;20335;-77
2022/08/16 02:48:25;;;;;;;17.73;14.02;;;;;;;20.35;77.14;100591.47;5025293;28;20028;-77
2022/08/16 02:50:51;;;;;;;14.60;13.20;;;;;;;20.35;77.31;100590.63;5022151;28;20084;-77
2022/08/16 02:53:17;;;;;;;15.48;13.98;;;;;;;20.33;77.11;100590.75;5021674;28;20333;-77
2022/08/16 02:55:42;;;;;;;14.85;13.45;;;;;;;20.32;77.34;100589.91;5039501;28;20041;-77
2022/08/16 02:58:08;;;;;;;15.57;13.65;;;;;;;20.32;77.04;100589.09;5050651;28;20044;-77
2022/08/16 03:00:33;;;;;;;16.02;14.30;;;;;;;20.30;77.15;100589.22;5025151;28;20052;-77
2022/08/16 03:02:59;;;;;;;14.45;13.05;;;;;;;20.29;77.07;100594.66;5040904;28;20039;-77
2022/08/16 03:05:24;;;;;;;14.23;12.82;;;;;;;20.28;77.49;100598.28;5041207;28;20040;-78
2022/08/16 03:07:50;;;;;;;16.35;12.80;;;;;;;20.26;77.43;100590.44;5025606;28;20232;-77
2022/08/16 03:10:16;;;;;;;14.65;13.15;;;;;;;20.25;77.34;100588.75;5025965;28;20045;-77
2022/08/16 03:12:45;;;;;;;15.10;13.70;;;;;;;20.24;77.42;100588.88;5040638;28;20048;-77
2022/08/16 03:15:12;;;;;;;13.90;12.60;;;;;;;20.23;77.14;100589.84;5040076;28;20068;-77
2022/08/16 03:17:38;;;;;;;15.32;13.73;;;;;;;20.21;77.38;100578.50;5040477;28;20097;-77
2022/08/16 03:20:07;;;;;;;16.83;14.32;;;;;;;20.20;77.10;100585.66;5040581;28;20048;-77
2022/08/16 03:22:32;;;;;;;;;;;;;;;20.19;77.19;100594.59;5037000;28;20041;-77
2022/08/16 03:25:00;;;;;;;15.52;13.90;;;;;;;20.18;77.27;100592.09;5040110;28;19972;-77
2022/08/16 03:27:26;;;;;;;16.93;14.27;;;;;;;20.17;76.89;100585.91;5058371;28;20040;-77
2022/08/16 03:29:51;;;;;;;15.38;13.77;;;;;;;20.17;76.99;100591.22;5041942;28;20282;-77
2022/08/16 03:32:17;;;;;;;18.05;15.60;;;;;;;20.16;76.93;100584.22;5042732;28;20310;-77
2022/08/16 03:34:42;;;;;;;20.70;15.57;;;;;;;20.15;76.74;100587.84;5042366;28;20271;-77
2022/08/16 03:37:08;;;;;;;17.17;15.48;;;;;;;20.16;76.79;100588.72;5028369;28;20458;-77
2022/08/16 03:39:33;;;;;;;17.55;15.73;;;;;;;20.14;76.90;100586.19;5033479;28;20298;-77
2022/08/16 03:41:58;;;;;;;17.80;15.98;;;;;;;20.14;76.91;100597.66;5058497;28;20028;-77
2022/08/16 03:44:24;;;;;;;19.48;15.88;;;;;;;20.14;76.86;100591.50;5024619;28;20028;-77
2022/08/16 03:46:49;;;;;;;17.30;15.60;;;;;;;20.13;76.51;100595.94;5049209;28;20041;-77
2022/08/16 03:49:16;;;;;;;15.73;14.00;;;;;;;20.12;75.88;100599.59;5036966;28;20296;-77
2022/08/16 03:51:42;;;;;;;18.90;15.60;;;;;;;20.13;75.52;100605.75;5022037;28;20037;-77
2022/08/16 03:54:07;;;;;;;17.85;15.95;;;;;;;20.13;75.75;100603.09;5042334;28;20029;-77
2022/08/16 03:56:33;;;;;;;17.33;15.57;;;;;;;20.14;76.09;100602.13;5041045;28;20036;-77
2022/08/16 03:58:59;;;;;;;16.50;14.82;;;;;;;20.12;75.83;100596.94;5059617;28;20385;-77
2022/08/16 04:01:25;;;;;;;17.85;15.90;;;;;;;20.12;75.34;100598.78;5051661;28;20045;-77
2022/08/16 04:03:52;;;;;;;18.10;16.02;;;;;;;20.11;75.44;100608.53;5042723;28;20111;-77
2022/08/16 04:06:19;;;;;;;19.13;16.20;;;;;;;20.10;75.02;100612.19;5038718;28;20029;-77
2022/08/16 04:08:45;;;;;;;17.02;14.95;;;;;;;20.10;74.38;100617.50;5039143;28;20402;-77
2022/08/16 04:11:10;;;;;;;18.60;15.75;;;;;;;20.10;74.10;100611.31;5024613;28;20096;-77
2022/08/16 04:13:36;;;;;;;20.73;15.80;;;;;;;20.10;74.13;100611.31;5020735;28;20041;-77
2022/08/16 04:16:01;;;;;;;17.77;16.02;;;;;;;20.08;74.28;100616.78;5038985;28;20341;-77
2022/08/16 04:18:28;;;;;;;18.40;16.48;;;;;;;20.08;74.16;100616.78;5039312;28;20363;-77
2022/08/16 04:20:53;;;;;;;22.40;17.70;;;;;;;20.08;74.85;100606.16;5026202;28;20037;-78
2022/08/16 04:23:19;;;;;;;19.33;16.98;;;;;;;20.08;75.34;100616.78;5021433;28;20087;-78
2022/08/16 04:25:45;;;;;;;20.77;17.77;;;;;;;20.08;75.13;100632.75;5018334;28;20252;-77
2022/08/16 04:28:11;;;;;;;18.38;16.45;;;;;;;20.07;75.22;100628.38;5036448;28;20052;-78
2022/08/16 04:30:36;;;;;;;20.83;18.05;;;;;;;20.07;75.35;100632.88;5045997;28;20029;-78
2022/08/16 04:33:02;;;;;;;19.90;16.75;;;;;;;20.06;75.65;100632.00;5043367;28;20041;-78
2022/08/16 04:35:27;;;;;;;18.63;16.05;;;;;;;20.05;75.44;100627.66;5035528;28;20267;-77
2022/08/16 04:37:53;;;;;;;22.13;17.45;;;;;;;20.05;75.22;100633.00;5042887;28;20094;-77
2022/08/16 04:40:20;;;;;;;20.02;16.92;;;;;;;20.02;74.60;100633.22;5019561;28;20108;-78
2022/08/16 04:42:45;;;;;;;22.13;18.88;;;;;;;20.02;74.96;100630.56;5052619;28;20044;-78
2022/08/16 04:45:13;;;;;;;20.92;18.25;;;;;;;20.02;75.40;100627.91;5054422;28;20569;-77
2022/08/16 04:47:40;;;;;;;24.08;18.17;;;;;;;20.02;75.80;100632.41;5056682;28;20323;-77
2022/08/16 04:50:28;;;;;;;30.60;19.23;;;;;;;20.01;75.96;100628.03;5056619;28;20320;-77
2022/08/16 04:52:53;;;;;;;20.00;17.90;;;;;;;19.99;76.33;100633.47;5046441;28;20048;-77
2022/08/16 04:55:24;;;;;;;20.42;17.98;;;;;;;20.00;76.62;100631.69;5036584;28;20041;-77
2022/08/16 04:57:51;;;;;;;23.17;19.23;;;;;;;19.97;76.62;100634.59;5047759;28;20236;-77
2022/08/16 05:00:21;;;;;;;25.73;19.60;;;;;;;19.97;76.90;100646.06;5053600;28;20354;-77
2022/08/16 05:02:52;;;;;;;23.00;19.45;;;;;;;19.96;76.94;100648.88;5019325;28;20079;-77
2022/08/16 05:05:17;;;;;;;23.25;18.88;;;;;;;19.94;77.03;100649.00;5036526;28;20029;-77
2022/08/16 05:07:44;;;;;;;23.85;18.08;;;;;;;19.93;77.12;100655.28;5026592;28;20140;-77
2022/08/16 05:10:09;;;;;;;25.67;19.85;;;;;;;19.92;77.40;100649.13;5056690;28;20275;-77
2022/08/16 05:12:35;;;;;;;23.65;19.45;;;;;;;19.92;76.99;100641.16;5037998;28;20117;-77
2022/08/16 05:15:02;;;;;;;21.83;19.15;;;;;;;19.91;77.11;100646.59;5038914;28;20029;-77
2022/08/16 05:17:27;;;;;;;26.73;20.75;;;;;;;19.90;77.17;100653.72;5053372;28;20041;-77
2022/08/16 05:19:53;;;;;;;21.50;18.95;;;;;;;19.89;77.23;100646.72;5044951;28;20073;-77
2022/08/16 05:22:19;;;;;;;25.88;19.25;;;;;;;19.88;77.18;100647.69;5048467;28;20047;-77
2022/08/16 05:24:44;;;;;;;21.73;19.35;;;;;;;19.88;77.40;100653.00;5036415;28;20104;-77
2022/08/16 05:27:10;;;;;;;21.58;18.58;;;;;;;19.88;77.33;100655.66;5035522;28;20230;-77
2022/08/16 05:29:35;;;;;;;21.70;19.27;;;;;;;19.88;77.21;100654.81;5035243;28;20470;-77
2022/08/16 05:32:01;;;;;;;20.48;17.23;;;;;;;19.87;77.13;100656.63;5036056;28;20124;-77
2022/08/16 05:34:28;;;;;;;23.83;17.85;;;;;;;19.88;76.98;100662.78;5050797;28;20352;-77
2022/08/16 05:36:56;;;;;;;23.80;17.60;;;;;;;19.87;76.72;100667.25;5035125;28;20079;-76
2022/08/16 05:39:23;;;;;;;18.80;16.52;;;;;;;19.88;75.92;100668.09;5040322;28;20395;-77
2022/08/16 05:41:49;;;;;;;21.40;17.85;;;;;;;19.88;75.74;100668.09;5032219;28;20147;-77
2022/08/16 05:44:15;;;;;;;25.02;17.40;;;;;;;19.87;75.94;100669.06;5050998;28;20283;-77
2022/08/16 05:46:43;;;;;;;22.90;18.10;;;;;;;19.88;76.16;100670.75;5055763;28;20116;-77
2022/08/16 05:49:09;;;;;;;25.05;18.20;;;;;;;19.86;76.41;100665.56;5040803;28;20049;-77
2022/08/16 05:51:35;;;;;;;19.58;17.38;;;;;;;19.88;76.38;100665.44;5035459;28;20373;-77
2022/08/16 05:54:01;;;;;;;21.42;18.67;;;;;;;19.88;76.54;100670.75;5035922;28;20379;-77
2022/08/16 05:56:26;;;;;;;16.50;14.82;;;;;;;19.87;75.44;100674.38;5034415;28;20033;-77
2022/08/16 05:58:51;;;;;;;17.25;14.68;;;;;;;19.87;74.82;100674.38;5045938;28;20038;-77
2022/08/16 06:01:17;;;;;;;22.88;16.33;;;;;;;19.86;74.43;100673.53;5036504;28;20041;-77
2022/08/16 06:03:42;;;;;;;16.15;14.45;;;;;;;19.87;73.91;100677.03;5032028;28;20332;-77
2022/08/16 06:06:07;;;;;;;19.20;15.15;;;;;;;19.87;73.37;100674.38;5035554;28;20052;-77
2022/08/16 06:08:33;;;;;;;19.08;15.68;;;;;;;19.87;73.83;100671.72;5036241;28;20060;-77
2022/08/16 06:10:59;;;;;;;18.33;14.93;;;;;;;19.87;73.66;100677.88;5017509;28;20033;-75
2022/08/16 06:13:24;;;;;;;16.73;14.23;;;;;;;19.87;72.78;100680.53;5036068;28;20116;-76
2022/08/16 06:15:50;;;;;;;17.48;14.75;;;;;;;19.88;73.18;100686.69;5021492;28;20295;-77
2022/08/16 06:18:17;;;;;;;17.17;14.85;;;;;;;19.87;72.26;100690.34;5038581;28;20041;-76
2022/08/16 06:20:42;;;;;;;19.08;15.43;;;;;;;19.87;71.81;100696.47;5046264;28;20037;-77
2022/08/16 06:23:08;;;;;;;16.60;14.45;;;;;;;19.87;71.14;100685.03;5057296;28;20283;-77
2022/08/16 06:25:33;;;;;;;17.30;15.50;;;;;;;19.88;71.58;100695.53;5037981;28;20084;-76
2022/08/16 06:27:59;;;;;;;16.42;14.73;;;;;;;19.88;71.86;100695.53;5021580;28;20101;-77
2022/08/16 06:30:24;;;;;;;20.05;15.50;;;;;;;19.90;71.80;100685.63;5058918;28;20328;-76
2022/08/16 06:32:50;;;;;;;21.83;15.88;;;;;;;19.91;72.44;100697.06;5026635;28;20060;-77
2022/08/16 06:35:16;;;;;;;18.08;15.07;;;;;;;19.91;72.13;100694.41;5036003;28;20348;-76
2022/08/16 06:37:41;;;;;;;16.00;14.30;;;;;;;19.91;72.07;100687.28;5038543;28;20040;-77
2022/08/16 06:40:10;;;;;;;20.25;16.00;;;;;;;19.89;70.91;100680.41;5043015;28;20049;-76
2022/08/16 06:42:35;;;;;;;20.65;16.02;;;;;;;19.90;70.52;100671.47;5038209;28;20033;-76
2022/08/16 06:45:01;;;;;;;21.98;18.10;;;;;;;19.91;71.17;100683.78;5043013;28;20048;-77
2022/08/16 06:47:26;;;;;;;20.25;17.30;;;;;;;19.92;70.74;100677.50;5036844;28;20053;-77
2022/08/16 06:49:52;;;;;;;21.52;17.55;;;;;;;19.92;71.01;100696.13;5053563;28;20044;-76
2022/08/16 06:52:17;;;;;;;21.50;16.98;;;;;;;19.92;70.69;100688.97;5020725;28;20254;-76
2022/08/16 06:54:42;;;;;;;22.48;17.92;;;;;;;19.94;70.50;100699.50;5043527;28;20041;-76
2022/08/16 06:57:09;;;;;;;21.02;17.20;;;;;;;19.94;71.34;100695.00;5051621;28;20056;-76
2022/08/16 06:59:36;;;;;;;21.60;17.35;;;;;;;19.96;71.22;100694.06;5046567;28;20032;-77
2022/08/16 07:02:03;;;;;;;26.10;18.95;;;;;;;19.97;70.65;100701.03;5040410;28;20152;-76
2022/08/16 07:04:28;;;;;;;25.35;19.15;;;;;;;19.97;70.46;100693.91;5045019;28;20044;-76
2022/08/16 07:06:53;;;;;;;22.90;19.08;;;;;;;19.96;70.28;100694.88;5019797;28;20036;-77
2022/08/16 07:09:20;;;;;;;21.20;18.20;;;;;;;19.98;70.26;100698.25;5043699;28;20049;-76
2022/08/16 07:11:45;;;;;;;24.58;18.17;;;;;;;19.98;70.63;100697.44;5039800;28;20396;-76
2022/08/16 07:14:11;;;;;;;25.50;18.40;;;;;;;20.01;70.93;100702.47;5046611;28;20017;-76
2022/08/16 07:16:36;;;;;;;23.17;18.10;;;;;;;20.02;70.30;100704.16;5036675;28;20136;-77
2022/08/16 07:19:02;;;;;;;27.52;19.50;;;;;;;20.03;70.79;100711.16;5040205;28;20049;-76
2022/08/16 07:21:27;;;;;;;27.35;20.80;;;;;;;20.03;70.90;100716.47;5039879;28;20313;-76
2022/08/16 07:23:53;;;;;;;26.05;20.40;;;;;;;20.05;71.50;100726.03;5020219;28;20084;-76
2022/08/16 07:26:22;;;;;;;32.35;22.75;;;;;;;20.07;72.41;100724.06;5031931;28;20356;-76
2022/08/16 07:28:47;;;;;;;25.58;19.77;;;;;;;20.07;71.61;100729.41;5040425;28;20032;-77
2022/08/16 07:31:14;;;;;;;27.17;20.67;;;;;;;20.08;71.63;100725.78;5039711;28;20067;-76
2022/08/16 07:33:40;;;;;;;25.10;19.85;;;;;;;20.10;71.63;100733.59;5035659;28;20333;-76
2022/08/16 07:36:07;;;;;;;26.27;19.00;;;;;;;20.13;71.95;100733.34;5038416;28;20025;-76
2022/08/16 07:38:34;;;;;;;24.98;19.65;;;;;;;20.12;71.12;100732.53;5032816;28;20248;-76
2022/08/16 07:41:00;;;;;;;24.45;20.10;;;;;;;20.14;71.05;100738.56;5038871;28;20100;-76
2022/08/16 07:43:26;;;;;;;27.90;19.58;;;;;;;20.16;70.91;100742.91;5038662;28;20033;-76
2022/08/16 07:45:52;;;;;;;25.98;19.80;;;;;;;20.18;71.03;100747.13;5039455;28;20032;-76
2022/08/16 07:48:17;;;;;;;23.33;18.85;;;;;;;20.19;71.29;100746.13;5038359;28;20045;-76
2022/08/16 07:50:44;;;;;;;29.02;21.25;;;;;;;20.22;72.12;100751.19;5038778;28;20040;-76
2022/08/16 07:53:10;;;;;;;37.47;24.52;;;;;;;20.25;72.78;100750.97;5038570;28;20041;-76
2022/08/16 07:55:36;;;;;;;27.60;20.83;;;;;;;20.27;72.99;100756.16;5038541;28;20044;-76
2022/08/16 07:58:02;;;;;;;32.47;21.90;;;;;;;20.31;73.40;100744.28;5038413;28;20225;-76
2022/08/16 08:00:28;;;;;;;31.23;20.52;;;;;;;20.33;72.98;100747.66;5023211;28;20037;-76
2022/08/16 08:02:54;;;;;;;29.25;21.23;;;;;;;20.35;73.18;100745.72;5047154;28;20309;-76
2022/08/16 08:05:21;;;;;;;27.17;20.00;;;;;;;20.38;73.16;100745.47;5044582;28;20036;-76
2022/08/16 08:07:47;;;;;;;27.33;21.17;;;;;;;20.40;73.14;100748.84;5041663;28;20130;-76
2022/08/16 08:10:13;;;;;;;30.13;21.63;;;;;;;20.42;72.53;100746.88;5036717;28;20041;-76
2022/08/16 08:12:39;;;;;;;26.05;20.77;;;;;;;20.45;72.73;100748.47;5037823;28;20382;-76
2022/08/16 08:15:07;;;;;;;25.00;20.25;;;;;;;20.46;72.60;100742.97;5038389;28;20052;-76
2022/08/16 08:17:32;;;;;;;31.30;23.90;;;;;;;20.49;73.06;100745.41;5041366;28;20287;-76
2022/08/16 08:19:58;;;;;;;40.33;26.85;;;;;;;20.53;74.88;100751.31;5039594;28;20368;-76
2022/08/16 08:22:24;;;;;;;33.78;24.33;;;;;;;20.56;74.58;100751.06;5037947;28;20248;-76
2022/08/16 08:24:50;;;;;;;32.50;25.63;;;;;;;20.56;73.86;100753.72;5034956;28;20037;-76
2022/08/16 08:27:16;;;;;;;32.47;24.75;;;;;;;20.59;74.08;100747.28;5050186;28;20029;-76
2022/08/16 08:29:42;;;;;;;32.30;25.33;;;;;;;20.61;73.71;100761.31;5034682;28;20325;-76
2022/08/16 08:32:08;;;;;;;35.22;27.83;;;;;;;20.64;73.92;100761.06;5016669;28;20347;-76
2022/08/16 08:34:34;;;;;;;35.08;27.48;;;;;;;20.63;73.43;100776.19;5017874;28;20068;-76
2022/08/16 08:36:59;;;;;;;38.42;27.08;;;;;;;20.65;73.92;100771.59;5036961;28;20037;-76
2022/08/16 08:39:25;;;;;;;34.95;27.85;;;;;;;20.68;73.62;100774.00;5035159;28;20041;-76
2022/08/16 08:41:51;;;;;;;34.70;26.27;;;;;;;20.71;73.62;100779.03;5020983;28;20040;-76
2022/08/16 08:44:17;;;;;;;39.95;28.42;;;;;;;20.73;73.80;100781.59;5048179;28;20029;-76
2022/08/16 08:46:42;;;;;;;34.58;26.40;;;;;;;20.75;73.77;100786.78;5038304;28;20260;-76
2022/08/16 08:49:08;;;;;;;40.60;32.53;;;;;;;20.77;74.05;100785.66;5020015;28;20085;-76
2022/08/16 08:51:37;;;;;;;45.92;34.80;;;;;;;20.80;74.66;100789.91;5037019;28;20367;-76
2022/08/16 08:54:07;;;;;;;42.20;33.10;;;;;;;20.82;75.52;100788.78;5035011;28;20056;-76
2022/08/16 08:56:36;;;;;;;47.20;33.45;;;;;;;20.84;75.69;100800.13;5037524;28;20101;-76
2022/08/16 08:59:04;;;;;;;38.10;30.13;;;;;;;20.88;75.71;100793.59;5036820;28;20040;-76
2022/08/16 09:01:33;;;;;;;35.55;28.95;;;;;;;20.91;75.93;100800.47;5018896;28;20273;-76
2022/08/16 09:03:59;;;;;;;36.25;28.25;;;;;;;20.93;75.02;100806.50;5038435;28;20029;-76
2022/08/16 09:06:24;;;;;;;49.88;30.23;;;;;;;20.96;75.20;100811.59;5039882;28;20036;-75
2022/08/16 09:08:50;;;;;;;32.85;26.55;;;;;;;20.98;75.80;100806.97;5035457;28;20565;-76
2022/08/16 09:11:15;;;;;;;36.75;28.30;;;;;;;21.01;75.73;100809.38;5020824;28;20045;-76
2022/08/16 09:13:43;;;;;;;29.98;24.73;;;;;;;21.05;75.73;100804.63;5038991;28;20041;-76
2022/08/16 09:16:08;;;;;;;32.70;24.25;;;;;;;21.08;74.84;100804.34;5023271;28;20229;-76
2022/08/16 09:18:34;;;;;;;35.05;25.13;;;;;;;21.11;74.81;100804.09;5036507;28;20216;-76
2022/08/16 09:20:59;;;;;;;30.95;25.70;;;;;;;21.12;74.71;100805.78;5036834;28;20203;-76
2022/08/16 09:23:24;;;;;;;34.95;27.83;;;;;;;21.15;74.76;100808.19;5035480;28;20041;-76
2022/08/16 09:25:50;;;;;;;30.52;23.88;;;;;;;21.21;74.71;100809.47;5037867;28;20021;-76
2022/08/16 09:28:17;;;;;;;25.40;22.67;;;;;;;21.24;74.61;100817.19;5026591;28;20032;-76
2022/08/16 09:30:42;;;;;;;27.73;24.67;;;;;;;21.26;74.52;100816.06;5035294;28;20037;-76
2022/08/16 09:33:08;;;;;;;30.38;25.85;;;;;;;21.29;74.92;100813.16;5037394;28;20123;-75
2022/08/16 09:35:36;;;;;;;31.98;24.30;;;;;;;21.33;74.41;100813.75;5036237;28;20037;-76
2022/08/16 09:38:01;;;;;;;31.80;25.70;;;;;;;21.38;74.80;100816.00;5037827;28;20043;-76
2022/08/16 09:40:27;;;;;;;28.83;22.48;;;;;;;21.42;75.28;100814.75;5037441;28;20060;-76
2022/08/16 09:42:54;;;;;;;24.27;21.58;;;;;;;21.43;74.52;100814.63;5035203;28;20088;-76
2022/08/16 09:45:20;;;;;;;31.65;23.08;;;;;;;21.48;74.72;100819.56;5016445;28;20040;-76
2022/08/16 09:47:46;;;;;;;28.92;24.17;;;;;;;21.50;74.11;100814.97;5041899;28;20062;-76
2022/08/16 09:50:13;;;;;;;36.67;25.83;;;;;;;21.53;74.99;100822.69;5043431;28;20439;-76
2022/08/16 09:52:39;;;;;;;34.40;24.23;;;;;;;21.56;75.03;100810.94;5040945;28;20065;-76
2022/08/16 09:55:07;;;;;;;30.83;24.40;;;;;;;21.59;75.38;100810.66;5041090;28;20040;-76
2022/08/16 09:57:32;;;;;;;27.58;21.92;;;;;;;21.63;75.15;100812.91;5040943;28;20037;-76
2022/08/16 10:00:00;;;;;;;27.48;24.45;;;;;;;21.66;75.87;100820.63;5039428;28;20306;-76
2022/08/16 10:02:26;;;;;;;37.40;25.15;;;;;;;21.70;76.58;100825.69;5031283;28;20028;-76
2022/08/16 10:04:51;;;;;;;32.00;22.92;;;;;;;21.73;76.71;100833.44;5038385;28;20049;-76
2022/08/16 10:07:17;;;;;;;27.33;22.48;;;;;;;21.76;76.83;100831.34;5043917;28;20052;-76
2022/08/16 10:09:44;;;;;;;28.42;23.00;;;;;;;21.78;75.95;100841.88;5042649;28;20033;-76
2022/08/16 10:14:53;;;;;;;22.70;20.35;;;;;;;21.82;74.91;100833.44;5039343;28;20452;-76
2022/08/16 10:17:20;;;;;;;28.30;22.92;;;;;;;21.84;74.94;100828.81;5043728;28;20033;-76
2022/08/16 10:19:45;;;;;;;23.67;19.33;;;;;;;21.86;74.18;100831.34;5039076;28;20115;-76
2022/08/16 10:22:11;;;;;;;23.95;21.30;;;;;;;21.89;74.42;100830.25;5054027;28;20040;-76
2022/08/16 10:24:37;;;;;;;24.15;19.65;;;;;;;21.93;75.50;100840.50;5038461;28;20048;-76
2022/08/16 10:27:02;;;;;;;24.73;22.13;;;;;;;21.98;76.08;100832.09;5044315;28;20036;-76
2022/08/16 10:29:28;;;;;;;23.55;20.60;;;;;;;22.01;75.69;100838.00;5038446;28;20039;-76
2022/08/16 10:31:53;;;;;;;31.83;24.55;;;;;;;22.04;77.10;100835.03;5045868;28;20029;-80
2022/08/16 10:34:18;;;;;;;24.48;21.92;;;;;;;22.07;75.81;100836.63;5022165;28;20053;-76
2022/08/16 10:36:44;;;;;;;26.98;22.55;;;;;;;22.12;76.40;100844.19;5039122;28;20041;-76
2022/08/16 10:39:09;;;;;;;23.92;21.20;;;;;;;22.14;75.88;100837.75;5040108;28;20030;-76
2022/08/16 10:41:34;;;;;;;26.88;21.05;;;;;;;22.17;75.92;100841.97;5036550;28;20033;-76
2022/08/16 10:44:00;;;;;;;28.40;22.17;;;;;;;22.19;75.79;100851.53;5043027;28;20036;-76
2022/08/16 10:46:26;;;;;;;26.33;22.10;;;;;;;22.21;75.33;100844.22;5038114;28;20151;-76
2022/08/16 10:48:51;;;;;;;32.55;25.75;;;;;;;22.23;76.64;100844.09;5056259;28;20036;-76
2022/08/16 10:51:17;;;;;;;26.23;23.33;;;;;;;22.26;76.00;100849.16;5021801;28;20048;-76
2022/08/16 10:53:43;;;;;;;24.33;19.35;;;;;;;22.26;75.27;100856.28;5037018;28;20230;-76
2022/08/16 10:56:11;;;;;;;24.50;19.52;;;;;;;22.27;74.34;100858.88;5053030;28;20407;-76
2022/08/16 10:58:39;;;;;;;25.73;20.55;;;;;;;22.28;74.55;100859.69;5038225;28;20044;-76
2022/08/16 11:01:07;;;;;;;25.13;19.30;;;;;;;22.29;73.87;100862.22;5056822;28;20320;-76
2022/08/16 11:03:33;;;;;;;30.27;20.30;;;;;;;22.30;75.06;100869.25;5053407;28;20025;-76
2022/08/16 11:05:59;;;;;;;23.10;18.48;;;;;;;22.33;75.73;100862.81;5038194;28;20025;-77
2022/08/16 11:08:24;;;;;;;17.75;15.85;;;;;;;22.36;74.44;100873.22;5039784;28;20639;-76
2022/08/16 11:10:50;;;;;;;23.95;19.35;;;;;;;22.37;74.60;100873.03;5038103;28;20029;-76
2022/08/16 11:13:22;;;;;;;22.75;16.88;;;;;;;22.39;73.52;100873.78;5037796;28;20068;-76